Time;durP1;ratioP1;P1;durP2;ratioP2;P2;SDS_P1;SDS_P2;PMS_P1;PMS_P2;Temp;Humidity;BMP_temperature;BMP_pressure;BME280_temperature;BME280_humidity;BME280_pressure;Samples;Min_cycle;Max_cycle;Signal;HPM_P1;HPM_P2
2021/03/31 00:00:40;;;;;;;8.90;1.40;;;28.30;54.30;;;;;;5096665;28;20028;-67
2021/03/31 00:03:14;;;;;;;5.75;1.75;;;28.20;53.10;;;;;;5097589;28;20037;-67
2021/03/31 00:05:41;;;;;;;3.42;1.15;;;28.40;49.80;;;;;;5094018;28;20031;-69
2021/03/31 00:08:09;;;;;;;6.68;1.27;;;28.60;50.20;;;;;;5095069;28;20036;-68
2021/03/31 00:10:50;;;;;;;6.20;1.40;;;29.00;49.50;;;;;;5097199;28;20046;-68
2021/03/31 00:13:19;;;;;;;11.68;2.05;;;29.00;51.80;;;;;;5095382;28;20107;-68
2021/03/31 00:15:46;;;;;;;6.82;1.77;;;29.40;48.30;;;;;;5094526;28;20034;-69
2021/03/31 00:18:16;;;;;;;5.47;1.20;;;29.30;48.90;;;;;;5096820;28;20092;-71
2021/03/31 00:20:44;;;;;;;4.70;1.60;;;29.60;50.10;;;;;;5104935;28;20100;-68
2021/03/31 00:23:14;;;;;;;4.82;1.38;;;29.70;48.40;;;;;;5093263;28;20032;-67
2021/03/31 00:25:42;;;;;;;5.85;1.42;;;29.30;46.30;;;;;;5077033;28;20397;-68
2021/03/31 00:28:11;;;;;;;3.85;1.15;;;29.20;49.20;;;;;;5095294;28;20031;-68
2021/03/31 00:30:39;;;;;;;5.38;0.90;;;29.20;48.80;;;;;;5071777;28;20059;-68
2021/03/31 00:33:07;;;;;;;5.82;1.35;;;29.50;49.80;;;;;;5081175;28;20489;-68
2021/03/31 00:35:35;;;;;;;5.63;1.35;;;29.50;50.70;;;;;;5079062;28;20063;-68
2021/03/31 00:38:04;;;;;;;4.65;1.67;;;29.70;47.00;;;;;;5079644;28;20020;-68
2021/03/31 00:40:39;;;;;;;6.72;1.63;;;29.90;45.70;;;;;;5074366;28;20024;-68
2021/03/31 00:43:07;;;;;;;5.88;1.48;;;29.90;46.10;;;;;;5092212;28;20044;-68
2021/03/31 00:45:35;;;;;;;6.10;1.15;;;29.70;46.80;;;;;;5084253;28;20038;-68
2021/03/31 00:48:02;;;;;;;4.85;0.95;;;29.80;47.70;;;;;;5080172;28;20035;-68
2021/03/31 00:50:31;;;;;;;10.43;1.20;;;30.00;46.20;;;;;;5084555;28;20089;-67
2021/03/31 00:53:00;;;;;;;7.60;2.10;;;30.60;46.30;;;;;;5081224;28;20334;-67
2021/03/31 00:55:29;;;;;;;5.03;1.33;;;30.90;45.50;;;;;;5081563;28;20048;-67
2021/03/31 00:57:58;;;;;;;6.57;1.30;;;31.00;45.70;;;;;;5096330;28;20030;-67
2021/03/31 01:00:26;;;;;;;6.28;1.30;;;31.10;44.20;;;;;;5097599;28;20023;-67
2021/03/31 01:02:53;;;;;;;9.18;2.25;;;30.90;43.60;;;;;;5095812;28;20028;-67
2021/03/31 01:05:26;;;;;;;8.27;1.45;;;31.00;46.80;;;;;;5093960;28;20145;-68
2021/03/31 01:07:54;;;;;;;7.10;1.70;;;31.10;43.80;;;;;;5090925;28;20331;-67
2021/03/31 01:10:35;;;;;;;6.38;1.40;;;31.30;44.70;;;;;;5081848;28;20136;-68
2021/03/31 01:13:20;;;;;;;7.40;1.58;;;30.60;46.30;;;;;;5080390;28;20020;-67
2021/03/31 01:16:05;;;;;;;5.88;1.45;;;30.30;45.70;;;;;;5088098;28;20027;-68
2021/03/31 01:19:08;;;;;;;4.75;1.10;;;29.10;46.00;;;;;;5079112;28;20037;-68
2021/03/31 01:21:53;;;;;;;3.80;1.58;;;28.70;50.00;;;;;;5079188;28;20099;-68
2021/03/31 01:24:58;;;;;;;3.97;1.30;;;29.90;47.10;;;;;;5088089;28;20034;-67
2021/03/31 01:27:42;;;;;;;4.78;1.00;;;30.20;45.30;;;;;;5099086;28;20108;-67
2021/03/31 01:30:30;;;;;;;6.55;1.20;;;30.60;45.70;;;;;;5097484;28;20083;-68
2021/03/31 01:33:11;;;;;;;6.85;1.42;;;31.00;42.90;;;;;;5094805;28;20114;-68
2021/03/31 01:35:41;;;;;;;5.15;1.52;;;30.80;42.70;;;;;;5098477;28;20089;-69
2021/03/31 01:38:11;;;;;;;6.60;1.15;;;30.60;43.30;;;;;;5098963;28;20063;-68
2021/03/31 01:40:46;;;;;;;4.38;0.80;;;29.80;44.50;;;;;;5099117;28;20081;-66
2021/03/31 01:43:18;;;;;;;6.25;1.17;;;30.00;47.00;;;;;;5099377;28;20366;-66
2021/03/31 01:45:56;;;;;;;6.45;1.75;;;29.60;45.90;;;;;;5082027;28;20028;-67
2021/03/31 01:48:31;;;;;;;8.00;1.27;;;29.40;48.30;;;;;;5096371;28;20757;-67
2021/03/31 01:51:07;;;;;;;4.53;1.10;;;29.50;45.90;;;;;;5100876;28;20032;-66
2021/03/31 01:53:35;;;;;;;6.68;0.80;;;29.70;47.50;;;;;;5079540;27;20371;-66
2021/03/31 01:56:07;;;;;;;3.17;0.80;;;29.00;46.50;;;;;;5099552;28;20020;-68
2021/03/31 01:58:36;;;;;;;5.07;0.90;;;28.50;46.90;;;;;;5093422;28;20047;-69
2021/03/31 02:01:04;;;;;;;8.52;2.10;;;28.40;47.50;;;;;;5097842;28;20035;-68
2021/03/31 02:03:32;;;;;;;5.53;0.90;;;29.10;49.00;;;;;;5099732;27;20030;-67
2021/03/31 02:06:00;;;;;;;3.95;1.30;;;30.30;46.20;;;;;;5082906;28;20047;-67
2021/03/31 02:08:28;;;;;;;4.70;1.13;;;30.40;47.10;;;;;;5097935;28;20046;-68
2021/03/31 02:10:56;;;;;;;4.50;1.02;;;29.20;45.80;;;;;;5103286;27;20116;-68
2021/03/31 02:13:24;;;;;;;5.90;1.05;;;28.20;47.10;;;;;;5102254;27;20466;-67
2021/03/31 02:15:58;;;;;;;4.78;1.02;;;27.70;48.10;;;;;;5099990;28;20035;-70
2021/03/31 02:18:28;;;;;;;4.20;1.05;;;27.20;49.40;;;;;;5097745;28;20031;-68
2021/03/31 02:20:56;;;;;;;5.85;1.30;;;26.70;51.30;;;;;;5095663;28;20038;-70
2021/03/31 02:23:25;;;;;;;7.88;1.73;;;26.40;53.40;;;;;;5111278;28;20019;-67
2021/03/31 02:25:53;;;;;;;7.85;1.17;;;26.20;53.60;;;;;;5093586;28;20053;-68
2021/03/31 02:28:20;;;;;;;6.20;0.90;;;25.90;53.50;;;;;;5102377;27;20180;-67
2021/03/31 02:30:48;;;;;;;10.35;2.40;;;25.60;53.20;;;;;;5095208;27;20484;-67
2021/03/31 02:33:18;;;;;;;10.00;2.17;;;25.40;53.80;;;;;;5095560;27;20035;-67
2021/03/31 02:35:46;;;;;;;6.85;1.60;;;25.20;54.50;;;;;;5098992;27;20099;-67
2021/03/31 02:38:18;;;;;;;8.18;1.60;;;25.00;56.00;;;;;;5095605;27;20058;-67
2021/03/31 02:40:48;;;;;;;6.65;1.33;;;25.00;55.90;;;;;;5097752;28;20032;-67
2021/03/31 02:43:18;;;;;;;12.73;2.00;;;25.20;55.60;;;;;;5098887;28;20090;-68
2021/03/31 02:45:53;;;;;;;5.18;1.50;;;25.40;55.80;;;;;;5096612;27;20024;-69
2021/03/31 02:48:21;;;;;;;6.50;1.45;;;26.60;52.80;;;;;;5097355;28;20114;-69
2021/03/31 02:50:49;;;;;;;8.98;2.13;;;27.60;50.20;;;;;;5096302;27;20032;-69
2021/03/31 02:53:17;;;;;;;9.48;2.65;;;28.40;50.30;;;;;;5085034;28;20496;-67
2021/03/31 02:55:46;;;;;;;7.43;1.50;;;28.70;48.30;;;;;;5099091;28;20028;-68
2021/03/31 02:58:15;;;;;;;6.40;1.98;;;29.10;48.10;;;;;;5097269;28;20054;-68
2021/03/31 03:00:42;;;;;;;5.15;1.58;;;29.40;48.10;;;;;;5080528;28;20024;-68
2021/03/31 03:03:10;;;;;;;12.18;1.95;;;29.10;47.10;;;;;;5096754;28;20039;-68
2021/03/31 03:05:38;;;;;;;5.47;1.25;;;29.50;48.20;;;;;;5099602;28;20019;-68
2021/03/31 03:08:06;;;;;;;6.80;1.95;;;28.60;47.60;;;;;;5091864;27;20032;-67
2021/03/31 03:10:33;;;;;;;6.53;1.63;;;27.50;49.80;;;;;;5100181;28;20115;-68
2021/03/31 03:13:03;;;;;;;3.72;1.20;;;27.00;51.40;;;;;;5093107;28;20027;-71
2021/03/31 03:15:31;;;;;;;5.82;1.08;;;27.20;53.50;;;;;;5097243;27;20623;-67
2021/03/31 03:17:59;;;;;;;4.93;1.30;;;27.40;49.60;;;;;;5101906;28;20115;-67
2021/03/31 03:20:27;;;;;;;8.00;1.40;;;27.20;49.20;;;;;;5096296;28;20065;-71
2021/03/31 03:22:56;;;;;;;4.97;1.30;;;27.30;50.40;;;;;;5098456;28;20024;-69
2021/03/31 03:25:26;;;;;;;5.18;1.90;;;28.10;49.50;;;;;;5098606;28;20485;-67
2021/03/31 03:27:54;;;;;;;6.50;1.42;;;28.50;47.10;;;;;;5103087;28;20019;-69
2021/03/31 03:30:23;;;;;;;7.15;1.10;;;28.90;45.30;;;;;;5095443;28;20381;-68
2021/03/31 03:32:52;;;;;;;7.55;1.38;;;29.10;45.60;;;;;;5095052;28;20136;-71
2021/03/31 03:35:26;;;;;;;9.57;1.27;;;29.50;45.20;;;;;;5094417;27;20039;-68
2021/03/31 03:37:54;;;;;;;6.78;1.40;;;29.70;44.60;;;;;;5081955;28;20123;-66
2021/03/31 03:40:26;;;;;;;7.32;1.40;;;29.90;43.70;;;;;;5101802;28;20024;-67
2021/03/31 03:42:54;;;;;;;3.80;1.85;;;30.10;45.20;;;;;;5097871;28;20410;-67
2021/03/31 03:45:25;;;;;;;5.32;1.45;;;30.00;44.10;;;;;;5094566;28;20482;-66
2021/03/31 03:47:53;;;;;;;5.38;1.25;;;30.00;43.60;;;;;;5102053;28;20031;-68
2021/03/31 03:50:21;;;;;;;4.72;1.20;;;30.30;43.50;;;;;;5095116;28;20035;-67
2021/03/31 03:52:50;;;;;;;7.68;1.15;;;30.50;44.30;;;;;;5078282;28;20031;-69
2021/03/31 03:55:23;;;;;;;5.57;1.33;;;30.50;44.30;;;;;;5093261;28;20020;-67
2021/03/31 03:57:51;;;;;;;3.35;1.02;;;30.20;41.80;;;;;;5100593;28;20027;-69
2021/03/31 04:00:22;;;;;;;5.80;0.98;;;30.30;41.90;;;;;;5104014;28;20426;-67
2021/03/31 04:02:56;;;;;;;5.05;1.15;;;30.10;47.60;;;;;;5091957;28;20485;-68
2021/03/31 04:05:24;;;;;;;8.18;1.70;;;29.90;41.80;;;;;;5094379;28;20123;-69
2021/03/31 04:07:52;;;;;;;6.32;1.13;;;29.80;43.00;;;;;;5102287;28;20023;-67
2021/03/31 04:10:23;;;;;;;7.00;1.67;;;29.90;41.60;;;;;;5099384;28;20047;-68
2021/03/31 04:12:52;;;;;;;5.45;1.25;;;30.00;40.70;;;;;;5076855;28;20515;-67
2021/03/31 04:15:21;;;;;;;3.25;1.55;;;29.60;41.60;;;;;;5093821;28;20035;-68
2021/03/31 04:17:50;;;;;;;7.25;1.27;;;29.10;40.00;;;;;;5098719;28;20012;-68
2021/03/31 04:20:22;;;;;;;3.63;1.52;;;29.10;41.10;;;;;;5099500;28;20019;-67
2021/03/31 04:22:50;;;;;;;2.25;0.60;;;29.10;42.30;;;;;;5073136;28;20036;-68
2021/03/31 04:25:19;;;;;;;5.90;1.05;;;29.00;42.60;;;;;;5097193;28;20032;-67
2021/03/31 04:27:49;;;;;;;4.38;0.95;;;29.00;41.20;;;;;;5097473;28;20039;-68
2021/03/31 04:30:19;;;;;;;2.70;0.68;;;28.80;42.00;;;;;;5090632;28;20135;-68
2021/03/31 04:32:49;;;;;;;4.00;1.45;;;28.60;41.80;;;;;;5075791;28;20031;-71
2021/03/31 04:35:22;;;;;;;4.97;0.93;;;28.80;42.00;;;;;;5078591;28;20098;-68
2021/03/31 04:37:50;;;;;;;3.30;1.08;;;28.70;40.10;;;;;;5054909;28;20447;-69
2021/03/31 04:40:20;;;;;;;7.35;1.70;;;28.40;42.00;;;;;;5083810;28;20541;-67
2021/03/31 04:42:47;;;;;;;7.55;1.38;;;28.70;42.10;;;;;;5070230;28;20039;-69
2021/03/31 04:45:15;;;;;;;6.82;1.10;;;28.90;41.00;;;;;;5072659;28;20077;-70
2021/03/31 04:47:42;;;;;;;2.20;0.93;;;29.10;40.90;;;;;;5077110;28;20116;-68
2021/03/31 04:50:11;;;;;;;5.13;0.77;;;29.00;39.70;;;;;;5060169;28;20042;-68
2021/03/31 04:52:39;;;;;;;3.17;0.65;;;28.80;40.60;;;;;;5087799;28;20078;-70
2021/03/31 04:55:07;;;;;;;3.70;0.70;;;28.80;40.20;;;;;;5091105;28;20028;-68
2021/03/31 04:57:34;;;;;;;4.88;0.65;;;28.40;39.50;;;;;;5085762;28;20059;-69
2021/03/31 05:00:02;;;;;;;3.58;1.20;;;27.70;40.70;;;;;;5085402;28;20020;-70
2021/03/31 05:02:29;;;;;;;5.65;1.05;;;27.70;42.10;;;;;;5087883;28;20344;-69
2021/03/31 05:04:57;;;;;;;7.80;1.20;;;28.00;44.20;;;;;;5076073;28;20443;-70
2021/03/31 05:07:25;;;;;;;6.03;1.52;;;28.10;42.30;;;;;;5085034;28;20020;-71
2021/03/31 05:09:52;;;;;;;4.60;1.20;;;27.60;42.60;;;;;;5062733;28;20524;-68
2021/03/31 05:12:19;;;;;;;4.22;0.80;;;27.10;44.50;;;;;;5078212;28;20028;-71
2021/03/31 05:14:47;;;;;;;4.40;1.10;;;27.10;43.70;;;;;;5078299;28;20098;-68
2021/03/31 05:17:14;;;;;;;3.72;0.90;;;27.20;43.30;;;;;;5083870;28;20030;-71
2021/03/31 05:19:42;;;;;;;4.68;1.52;;;26.80;44.80;;;;;;5074950;28;20044;-71
2021/03/31 05:22:12;;;;;;;8.73;1.45;;;26.50;46.40;;;;;;5091690;28;20119;-70
2021/03/31 05:24:39;;;;;;;5.43;1.23;;;26.20;46.50;;;;;;5091961;28;20052;-70
2021/03/31 05:27:07;;;;;;;4.30;0.90;;;26.50;46.80;;;;;;5078382;28;20116;-68
2021/03/31 05:29:35;;;;;;;5.72;0.90;;;26.50;45.30;;;;;;5095660;28;20120;-68
2021/03/31 05:32:02;;;;;;;4.25;0.75;;;26.30;45.80;;;;;;5104089;28;20027;-68
2021/03/31 05:34:29;;;;;;;5.80;1.20;;;26.60;45.00;;;;;;5106333;28;20032;-70
2021/03/31 05:36:57;;;;;;;3.50;0.70;;;26.70;44.70;;;;;;5086954;28;20028;-68
2021/03/31 05:39:25;;;;;;;3.85;0.98;;;27.00;44.00;;;;;;5098185;27;20027;-67
2021/03/31 05:41:54;;;;;;;5.50;1.00;;;27.40;44.40;;;;;;5096883;27;20306;-68
2021/03/31 05:44:23;;;;;;;3.80;0.70;;;27.50;45.10;;;;;;5094921;27;20428;-67
2021/03/31 05:46:51;;;;;;;3.25;1.02;;;27.40;42.80;;;;;;5101010;28;20104;-69
2021/03/31 05:49:19;;;;;;;2.40;0.77;;;27.30;42.00;;;;;;5107085;28;20224;-67
2021/03/31 05:51:47;;;;;;;7.45;1.88;;;27.30;41.70;;;;;;5098683;28;20031;-69
2021/03/31 05:54:15;;;;;;;4.25;1.60;;;27.30;42.30;;;;;;5098638;28;20032;-68
2021/03/31 05:56:43;;;;;;;3.60;1.45;;;27.20;41.90;;;;;;5080251;28;20044;-68
2021/03/31 05:59:11;;;;;;;3.45;1.25;;;27.40;42.10;;;;;;5096323;27;20516;-68
2021/03/31 06:01:40;;;;;;;9.75;2.10;;;27.30;41.00;;;;;;5098887;28;20051;-68
2021/03/31 06:04:07;;;;;;;6.18;0.90;;;27.10;41.80;;;;;;5099467;27;20032;-68
2021/03/31 06:06:35;;;;;;;6.18;1.00;;;27.20;41.50;;;;;;5098460;27;20031;-68
2021/03/31 06:09:07;;;;;;;1.58;0.70;;;27.20;41.80;;;;;;5098471;28;20493;-70
2021/03/31 06:11:58;;;;;;;11.23;2.03;;;27.20;42.50;;;;;;5099887;27;20489;-69
2021/03/31 06:14:36;;;;;;;2.42;1.13;;;27.20;43.00;;;;;;5098050;28;20560;-69
2021/03/31 06:17:06;;;;;;;5.03;0.63;;;27.20;42.20;;;;;;5101697;28;20023;-68
2021/03/31 06:19:34;;;;;;;3.53;0.82;;;27.00;41.20;;;;;;5099486;27;20028;-68
2021/03/31 06:22:55;;;;;;;2.63;0.85;;;26.90;41.70;;;;;;5086070;28;20024;-67
2021/03/31 06:25:14;;;;;;;2.90;0.70;;;26.80;42.00;;;;;;5083325;27;20078;-70
2021/03/31 06:27:41;;;;;;;6.25;1.08;;;26.80;42.60;;;;;;5097770;28;20015;-69
2021/03/31 06:30:21;;;;;;;5.40;0.90;;;26.70;41.60;;;;;;5097640;28;20043;-68
2021/03/31 06:32:49;;;;;;;1.80;0.93;;;26.50;42.50;;;;;;5097801;28;20028;-66
2021/03/31 06:35:24;;;;;;;4.47;0.82;;;26.30;42.90;;;;;;5077571;28;20135;-68
2021/03/31 06:38:02;;;;;;;7.60;1.20;;;26.10;43.60;;;;;;5091721;28;20118;-68
2021/03/31 06:40:39;;;;;;;5.72;0.80;;;25.90;41.80;;;;;;5096381;27;20387;-68
2021/03/31 06:43:18;;;;;;;6.60;1.10;;;25.80;42.20;;;;;;5100000;27;20034;-68
2021/03/31 06:45:54;;;;;;;3.13;0.68;;;25.70;42.80;;;;;;5098135;28;20427;-68
2021/03/31 06:48:26;;;;;;;6.93;1.20;;;25.60;42.00;;;;;;5095857;27;20485;-66
2021/03/31 06:50:53;;;;;;;4.07;0.73;;;25.40;42.90;;;;;;5095959;28;20451;-67
2021/03/31 06:53:28;;;;;;;3.50;0.90;;;25.30;43.50;;;;;;5096883;27;20107;-70
2021/03/31 06:56:04;;;;;;;2.90;0.80;;;25.10;44.30;;;;;;5102884;28;20030;-67
2021/03/31 06:58:33;;;;;;;5.47;1.38;;;25.00;44.30;;;;;;5095899;28;20430;-68
2021/03/31 07:01:00;;;;;;;10.52;1.40;;;24.70;44.80;;;;;;5097174;28;20057;-67
2021/03/31 07:03:29;;;;;;;5.13;1.33;;;24.50;45.80;;;;;;5097499;27;20588;-68
2021/03/31 07:05:56;;;;;;;2.08;0.63;;;24.30;45.90;;;;;;5076290;28;20028;-68
2021/03/31 07:08:23;;;;;;;6.93;1.20;;;24.00;46.00;;;;;;5094352;27;20027;-68
2021/03/31 07:10:55;;;;;;;4.18;0.90;;;23.90;46.20;;;;;;5099884;28;20372;-68
2021/03/31 07:13:35;;;;;;;4.85;1.45;;;23.70;46.80;;;;;;5103330;28;20148;-68
2021/03/31 07:16:05;;;;;;;3.97;1.02;;;23.50;47.40;;;;;;5096049;28;20031;-70
2021/03/31 07:18:34;;;;;;;5.78;1.05;;;23.40;46.90;;;;;;5095989;27;20039;-69
2021/03/31 07:21:05;;;;;;;3.30;0.80;;;23.30;47.50;;;;;;5101071;28;20062;-69
2021/03/31 07:23:34;;;;;;;5.78;1.08;;;23.20;48.60;;;;;;5096820;27;20048;-67
2021/03/31 07:26:02;;;;;;;5.30;1.33;;;23.00;49.10;;;;;;5102935;28;20431;-71
2021/03/31 07:28:33;;;;;;;4.28;0.80;;;22.90;49.80;;;;;;5102238;28;20036;-72
2021/03/31 07:31:03;;;;;;;6.88;0.90;;;22.70;49.20;;;;;;5107770;28;20036;-73
2021/03/31 07:33:39;;;;;;;1.65;0.77;;;22.60;48.50;;;;;;5109832;28;20118;-72
2021/03/31 07:36:14;;;;;;;2.30;0.75;;;22.40;49.10;;;;;;5082689;28;20110;-72
2021/03/31 07:38:44;;;;;;;4.78;0.70;;;22.30;49.90;;;;;;5102546;28;20362;-71
2021/03/31 07:41:12;;;;;;;3.70;0.73;;;22.20;50.50;;;;;;5105735;28;20020;-73
2021/03/31 07:43:44;;;;;;;4.35;0.80;;;22.10;50.30;;;;;;5105759;28;20027;-73
2021/03/31 07:46:17;;;;;;;3.35;0.80;;;22.00;50.40;;;;;;5107729;28;20019;-73
2021/03/31 07:48:45;;;;;;;7.40;1.10;;;21.90;50.90;;;;;;5105342;28;20122;-74
2021/03/31 07:51:26;;;;;;;5.20;0.90;;;21.80;51.40;;;;;;5105805;27;20026;-73
2021/03/31 07:53:58;;;;;;;4.88;1.30;;;21.70;52.40;;;;;;5100265;28;20051;-74
2021/03/31 07:56:43;;;;;;;4.55;1.08;;;21.70;52.80;;;;;;5088866;28;20729;-70
2021/03/31 07:59:13;;;;;;;3.67;1.90;;;21.60;53.40;;;;;;5105329;28;20035;-72
2021/03/31 08:01:40;;;;;;;5.43;0.88;;;21.50;53.60;;;;;;5104988;28;20111;-75
2021/03/31 08:04:10;;;;;;;5.32;1.55;;;21.40;54.40;;;;;;5105421;28;20339;-70
2021/03/31 08:06:39;;;;;;;4.22;1.20;;;21.40;55.20;;;;;;5107361;28;20035;-70
2021/03/31 08:09:10;;;;;;;3.03;1.85;;;21.30;56.30;;;;;;5106218;28;20045;-69
2021/03/31 08:11:40;;;;;;;5.85;1.45;;;21.20;57.10;;;;;;5108079;28;20076;-70
2021/03/31 08:14:15;;;;;;;3.65;1.20;;;21.10;58.30;;;;;;5102270;28;20028;-70
2021/03/31 08:16:45;;;;;;;1.20;0.85;;;21.00;59.10;;;;;;5109671;28;20041;-70
2021/03/31 08:19:20;;;;;;;3.58;1.08;;;21.00;60.00;;;;;;5103272;28;20043;-72
2021/03/31 08:21:50;;;;;;;6.27;1.07;;;20.90;60.90;;;;;;5105155;28;20451;-73
2021/03/31 08:24:18;;;;;;;4.50;1.23;;;20.90;61.60;;;;;;5108213;28;20030;-72
2021/03/31 08:26:58;;;;;;;4.43;0.88;;;20.80;62.20;;;;;;5109642;28;20023;-74
2021/03/31 08:29:28;;;;;;;2.83;1.33;;;20.70;62.70;;;;;;5104083;28;20052;-74
2021/03/31 08:31:57;;;;;;;6.28;1.30;;;20.80;63.40;;;;;;5091952;28;20150;-71
2021/03/31 08:34:27;;;;;;;3.10;0.85;;;20.70;63.80;;;;;;5093769;28;20558;-73
2021/03/31 08:36:55;;;;;;;4.68;1.08;;;20.70;64.20;;;;;;5102993;28;20037;-73
2021/03/31 08:39:23;;;;;;;5.53;1.58;;;20.60;64.50;;;;;;5097786;28;20059;-73
2021/03/31 08:41:53;;;;;;;5.00;1.08;;;20.50;65.50;;;;;;5098542;28;20020;-72
2021/03/31 08:44:29;;;;;;;7.07;1.40;;;20.50;65.90;;;;;;5098761;28;20431;-72
2021/03/31 08:47:11;;;;;;;4.82;0.90;;;20.40;66.30;;;;;;5094358;28;20020;-73
2021/03/31 08:49:40;;;;;;;5.32;1.17;;;20.40;66.90;;;;;;5099946;28;20034;-72
2021/03/31 08:52:10;;;;;;;6.03;1.48;;;20.30;67.50;;;;;;5095939;28;20023;-72
2021/03/31 08:54:46;;;;;;;6.93;0.93;;;20.20;68.10;;;;;;5089299;28;20107;-74
2021/03/31 08:57:24;;;;;;;5.38;1.00;;;20.20;68.50;;;;;;5100557;28;20171;-70
2021/03/31 08:59:57;;;;;;;4.50;1.17;;;20.20;69.00;;;;;;5090540;28;20053;-74
2021/03/31 09:02:31;;;;;;;2.38;1.00;;;20.10;69.60;;;;;;5096191;28;20039;-74
2021/03/31 09:05:00;;;;;;;4.10;1.10;;;20.10;69.90;;;;;;5101487;28;20048;-74
2021/03/31 09:07:30;;;;;;;4.97;1.55;;;20.10;70.90;;;;;;5069131;28;20034;-71
2021/03/31 09:09:57;;;;;;;4.97;1.52;;;20.10;71.00;;;;;;5080937;28;20481;-73
2021/03/31 09:12:28;;;;;;;9.10;2.05;;;20.00;71.20;;;;;;5084931;28;20552;-73
2021/03/31 09:14:59;;;;;;;3.53;1.45;;;20.00;71.60;;;;;;5100662;28;20039;-73
2021/03/31 09:17:32;;;;;;;8.32;1.10;;;20.00;72.20;;;;;;5083788;28;20030;-73
2021/03/31 09:20:08;;;;;;;4.10;1.88;;;19.90;72.50;;;;;;5086979;28;20024;-73
2021/03/31 09:22:37;;;;;;;6.40;1.30;;;19.80;72.70;;;;;;5103153;28;20133;-75
2021/03/31 09:25:06;;;;;;;4.07;1.55;;;19.80;73.30;;;;;;5094484;28;20358;-75
2021/03/31 09:27:34;;;;;;;4.75;1.08;;;19.70;73.20;;;;;;5097159;28;20043;-74
2021/03/31 09:30:11;;;;;;;4.18;0.85;;;19.70;73.90;;;;;;5100627;28;20785;-74
2021/03/31 09:32:45;;;;;;;6.07;1.15;;;19.60;73.60;;;;;;5093218;28;20107;-74
2021/03/31 09:35:14;;;;;;;1.33;0.85;;;19.60;74.60;;;;;;5109269;28;20111;-74
2021/03/31 09:37:43;;;;;;;4.32;0.90;;;19.50;74.90;;;;;;5110878;28;20087;-72
2021/03/31 09:40:19;;;;;;;3.55;1.30;;;19.40;75.60;;;;;;5106686;28;20409;-72
2021/03/31 09:42:47;;;;;;;2.50;1.13;;;19.40;76.00;;;;;;5104520;27;20038;-72
2021/03/31 09:45:15;;;;;;;4.00;2.20;;;19.40;76.20;;;;;;5110503;28;20407;-72
2021/03/31 09:47:44;;;;;;;8.95;3.97;;;19.30;75.10;;;;;;5108515;27;20122;-73
2021/03/31 09:50:13;;;;;;;6.88;1.85;;;19.30;74.60;;;;;;5093796;28;20394;-74
2021/03/31 09:52:41;;;;;;;4.68;1.40;;;19.20;74.60;;;;;;5090481;28;20032;-69
2021/03/31 09:55:11;;;;;;;7.95;1.52;;;19.10;75.00;;;;;;5107226;28;20089;-73
2021/03/31 09:57:43;;;;;;;1.85;0.98;;;19.10;75.30;;;;;;5109164;27;20026;-69
2021/03/31 10:00:16;;;;;;;4.57;1.60;;;19.00;75.40;;;;;;5108759;28;20102;-70
2021/03/31 10:02:45;;;;;;;3.17;1.58;;;19.10;76.30;;;;;;5092262;28;20076;-69
2021/03/31 10:05:25;;;;;;;5.93;1.50;;;19.10;76.20;;;;;;5111939;28;20028;-70
2021/03/31 10:08:10;;;;;;;3.20;0.80;;;19.10;76.40;;;;;;5106932;28;22171;-70
2021/03/31 10:10:53;;;;;;;3.87;1.30;;;19.00;76.10;;;;;;5108850;28;20035;-70
2021/03/31 10:13:25;;;;;;;7.30;1.75;;;19.10;76.00;;;;;;5110303;28;20321;-69
2021/03/31 10:16:05;;;;;;;6.95;2.00;;;19.00;75.90;;;;;;5106660;28;20043;-71
2021/03/31 10:18:34;;;;;;;8.88;1.77;;;18.80;76.10;;;;;;5102251;27;20066;-70
2021/03/31 10:21:04;;;;;;;4.40;1.83;;;18.70;76.60;;;;;;5106756;28;20487;-71
2021/03/31 10:23:33;;;;;;;6.75;1.30;;;18.60;77.10;;;;;;5111761;28;20453;-70
2021/03/31 10:26:23;;;;;;;8.50;2.78;;;18.60;77.90;;;;;;5108062;28;20024;-70
2021/03/31 10:28:52;;;;;;;6.25;1.67;;;18.60;77.90;;;;;;5086050;28;20031;-69
2021/03/31 10:31:34;;;;;;;9.18;2.35;;;18.60;77.70;;;;;;5107289;28;20040;-68
2021/03/31 10:34:03;;;;;;;4.50;1.60;;;18.60;78.00;;;;;;5105460;28;20028;-69
2021/03/31 10:54:07;;;;;;;5.72;1.67;;;18.20;78.80;;;;;;5109115;28;20026;-70
2021/03/31 10:56:36;;;;;;;8.90;2.65;;;18.20;79.30;;;;;;5112470;28;20084;-71
2021/03/31 10:59:05;;;;;;;10.25;2.05;;;18.20;79.50;;;;;;5109900;28;20030;-70
2021/03/31 11:01:33;;;;;;;9.18;1.90;;;18.20;79.10;;;;;;5106388;28;20028;-75
2021/03/31 11:04:01;;;;;;;6.72;1.65;;;18.10;79.10;;;;;;5110559;28;20492;-73
2021/03/31 11:06:30;;;;;;;7.13;1.50;;;18.10;79.10;;;;;;5092451;28;20059;-73
2021/03/31 11:08:58;;;;;;;9.95;1.92;;;18.10;79.00;;;;;;5107005;28;20036;-75
2021/03/31 11:11:25;;;;;;;7.07;2.25;;;18.10;79.40;;;;;;5106766;28;20183;-73
2021/03/31 11:13:54;;;;;;;5.82;1.60;;;18.00;79.80;;;;;;5110672;28;20058;-73
2021/03/31 11:16:21;;;;;;;5.45;1.35;;;18.00;79.80;;;;;;5107454;28;20042;-73
2021/03/31 11:19:08;;;;;;;6.18;1.55;;;17.90;80.10;;;;;;5097911;28;20026;-74
2021/03/31 11:27:00;;;;;;;6.60;1.63;;;17.80;80.00;;;;;;4999486;28;20179;-71
2021/03/31 11:29:27;;;;;;;8.63;2.33;;;17.70;80.50;;;;;;5099844;28;20155;-71
2021/03/31 11:31:55;;;;;;;4.65;2.05;;;17.70;80.30;;;;;;5097047;28;20028;-72
2021/03/31 11:34:22;;;;;;;5.80;1.65;;;17.70;79.80;;;;;;5095220;28;20487;-73
2021/03/31 11:36:50;;;;;;;7.93;1.95;;;17.70;80.20;;;;;;5092324;28;20059;-71
2021/03/31 11:39:18;;;;;;;6.72;1.73;;;17.70;80.10;;;;;;5098077;28;20410;-70
2021/03/31 11:41:46;;;;;;;8.35;1.60;;;17.70;79.90;;;;;;5099821;28;20024;-73
2021/03/31 11:44:19;;;;;;;4.82;1.80;;;17.70;79.90;;;;;;5091778;28;20032;-71
2021/03/31 11:46:47;;;;;;;10.80;2.40;;;17.70;79.80;;;;;;5098049;28;20089;-73
2021/03/31 11:49:15;;;;;;;7.90;2.25;;;17.70;79.90;;;;;;5097599;28;20127;-74
2021/03/31 11:51:42;;;;;;;6.63;2.10;;;17.70;80.20;;;;;;5097597;28;20017;-72
2021/03/31 11:54:12;;;;;;;10.60;2.33;;;17.60;80.40;;;;;;5096666;28;20092;-73
2021/03/31 11:56:39;;;;;;;8.70;2.83;;;17.60;80.90;;;;;;5075319;28;20503;-72
2021/03/31 11:59:07;;;;;;;10.00;2.33;;;17.50;81.00;;;;;;5092993;28;20074;-73
2021/03/31 12:01:35;;;;;;;9.20;2.10;;;17.40;81.50;;;;;;5094697;28;20036;-71
2021/03/31 12:04:03;;;;;;;11.43;2.58;;;17.40;81.60;;;;;;5092215;28;20092;-71
2021/03/31 12:06:30;;;;;;;15.55;2.92;;;17.30;82.10;;;;;;5088865;28;20048;-70
2021/03/31 12:08:57;;;;;;;11.07;2.72;;;17.30;82.20;;;;;;5089151;28;20044;-74
2021/03/31 12:11:25;;;;;;;9.40;2.78;;;17.30;82.50;;;;;;5087530;28;20040;-70
2021/03/31 12:13:52;;;;;;;8.73;2.65;;;17.20;82.80;;;;;;5099007;28;20024;-73
2021/03/31 12:16:20;;;;;;;10.32;2.33;;;17.20;82.90;;;;;;5064274;28;20384;-72
2021/03/31 12:18:47;;;;;;;13.02;2.35;;;17.20;83.10;;;;;;5086515;28;20031;-73
2021/03/31 12:21:14;;;;;;;15.18;2.33;;;17.20;82.70;;;;;;5091754;28;20525;-72
2021/03/31 12:23:43;;;;;;;8.98;3.05;;;17.20;83.10;;;;;;5098354;28;20024;-71
2021/03/31 12:26:13;;;;;;;8.57;2.72;;;17.20;83.20;;;;;;5066470;28;20093;-71
2021/03/31 12:28:46;;;;;;;13.15;1.95;;;17.10;83.30;;;;;;5056891;28;20046;-69
2021/03/31 12:31:13;;;;;;;10.60;2.33;;;17.10;83.60;;;;;;5107507;28;21107;-69
2021/03/31 12:33:42;;;;;;;9.07;2.13;;;17.10;83.80;;;;;;5093718;28;20047;-70
2021/03/31 12:36:10;;;;;;;7.50;2.00;;;17.00;84.20;;;;;;5080426;28;20028;-72
2021/03/31 12:38:37;;;;;;;9.40;2.40;;;16.90;84.40;;;;;;5093351;28;20110;-70
2021/03/31 12:41:05;;;;;;;6.72;2.35;;;16.80;84.60;;;;;;5097749;28;20050;-72
2021/03/31 12:43:33;;;;;;;8.10;2.47;;;16.80;85.10;;;;;;5099980;28;20024;-70
2021/03/31 12:46:01;;;;;;;7.50;2.20;;;16.80;85.40;;;;;;5098692;28;20432;-70
2021/03/31 12:48:29;;;;;;;11.50;2.72;;;16.80;85.60;;;;;;5096023;28;20024;-71
2021/03/31 12:51:05;;;;;;;7.28;1.90;;;16.80;85.70;;;;;;5091500;28;20046;-71
2021/03/31 12:53:37;;;;;;;8.18;3.53;;;16.70;86.00;;;;;;5106161;28;20023;-71
2021/03/31 12:56:06;;;;;;;11.85;2.33;;;16.60;86.30;;;;;;5095830;28;20085;-73
2021/03/31 12:58:38;;;;;;;6.32;1.75;;;16.60;86.60;;;;;;5100877;28;20041;-73
2021/03/31 13:01:25;;;;;;;7.20;1.70;;;16.60;86.50;;;;;;5106103;28;20454;-74
2021/03/31 13:03:53;;;;;;;7.95;2.20;;;16.60;86.70;;;;;;5105621;28;20080;-72
2021/03/31 13:06:26;;;;;;;11.00;2.33;;;16.60;86.80;;;;;;5100116;28;20111;-74
2021/03/31 13:08:54;;;;;;;6.90;1.90;;;16.60;86.80;;;;;;5109221;28;20032;-72
2021/03/31 13:11:22;;;;;;;7.88;2.10;;;16.60;86.70;;;;;;5109507;28;20039;-73
2021/03/31 13:14:09;;;;;;;3.65;1.52;;;16.60;87.10;;;;;;5112598;28;20457;-71
2021/03/31 13:24:55;;;;;;;4.15;1.80;;;16.40;87.70;;;;;;5104998;28;20051;-74
2021/03/31 13:32:51;;;;;;;5.80;1.25;;;16.40;87.90;;;;;;5111822;28;20126;-69
2021/03/31 13:35:24;;;;;;;6.15;1.50;;;16.40;87.90;;;;;;5117891;28;20031;-69
2021/03/31 13:38:00;;;;;;;3.00;1.38;;;16.40;88.20;;;;;;5121660;28;20076;-69
2021/03/31 13:40:28;;;;;;;7.68;1.95;;;16.40;87.80;;;;;;5118342;28;20080;-72